Time;durP1;ratioP1;P1;durP2;ratioP2;P2;SDS_P1;SDS_P2;PMS_P1;PMS_P2;Temp;Humidity;BMP_temperature;BMP_pressure;BME280_temperature;BME280_humidity;BME280_pressure;Samples;Min_cycle;Max_cycle;Signal;HPM_P1;HPM_P2
2023/07/30 00:01:30;;;;;;;;;2.00;2.00;;;;;24.32;50.84;100805.78;4958407;28;45175;-48
2023/07/30 00:03:55;;;;;;;;;1.00;1.00;;;;;24.31;50.34;100803.25;4958635;28;45256;-49
2023/07/30 00:06:21;;;;;;;;;3.75;2.00;;;;;24.29;50.30;100800.72;4958591;28;45912;-45
2023/07/30 00:08:46;;;;;;;;;1.00;1.00;;;;;24.30;50.60;100809.50;4984782;28;45277;-47
2023/07/30 00:11:11;;;;;;;;;1.50;1.50;;;;;24.29;50.47;100807.81;4997207;28;47412;-44
2023/07/30 00:13:37;;;;;;;;;1.25;1.00;;;;;24.29;50.46;100808.69;4980018;28;45681;-45
2023/07/30 00:16:02;;;;;;;;;2.50;1.50;;;;;24.30;50.81;100822.75;4995884;28;46655;-47
2023/07/30 00:18:27;;;;;;;;;3.00;2.50;;;;;24.28;50.39;100822.88;4996928;28;45332;-45
2023/07/30 00:20:53;;;;;;;;;1.75;0.50;;;;;24.27;50.38;100815.88;4997752;28;45389;-46
2023/07/30 00:23:18;;;;;;;;;3.00;1.00;;;;;24.28;50.71;100817.56;4997061;28;49868;-42
2023/07/30 00:25:43;;;;;;;;;2.00;1.00;;;;;24.27;49.83;100817.66;4996471;28;61454;-44
2023/07/30 00:28:09;;;;;;;;;1.75;1.75;;;;;24.27;49.66;100821.19;4996486;28;62567;-46
2023/07/30 00:30:34;;;;;;;;;1.00;1.00;;;;;24.26;49.69;100819.47;4997316;28;45450;-47
2023/07/30 00:32:59;;;;;;;;;2.00;2.00;;;;;24.26;50.06;100823.91;4979571;28;45385;-47
2023/07/30 00:35:25;;;;;;;;;1.50;1.00;;;;;24.23;49.87;100817.91;4997169;28;45392;-44
2023/07/30 00:37:50;;;;;;;;;1.25;1.25;;;;;24.23;49.66;100815.25;4997159;28;45489;-46
2023/07/30 00:40:17;;;;;;;;;3.00;1.50;;;;;24.21;49.54;100813.66;4997049;28;45348;-49
2023/07/30 00:42:43;;;;;;;;;2.00;1.00;;;;;24.21;49.36;100814.50;4997313;28;45372;-49
2023/07/30 00:45:09;;;;;;;;;1.75;1.00;;;;;24.23;49.17;100819.69;4996729;28;46930;-47
2023/07/30 00:47:35;;;;;;;;;1.25;1.00;;;;;24.22;49.67;100823.28;4979161;28;46744;-43
2023/07/30 00:50:01;;;;;;;;;1.00;1.00;;;;;24.22;49.87;100826.81;4996938;28;45291;-48
2023/07/30 00:52:27;;;;;;;;;2.00;0.25;;;;;24.22;49.31;100831.22;4996997;28;45322;-48
2023/07/30 00:54:56;;;;;;;;;1.00;1.00;;;;;24.20;49.32;100827.84;4996992;28;45451;-46
2023/07/30 00:57:23;;;;;;;;;0.00;0.00;;;;;24.21;48.75;100842.78;4997016;28;45373;-43
2023/07/30 00:59:49;;;;;;;;;1.00;1.00;;;;;24.19;48.85;100845.56;4996774;28;45362;-45
2023/07/30 01:02:14;;;;;;;;;1.25;0.50;;;;;24.18;49.07;100848.31;4996970;28;45461;-47
2023/07/30 01:04:40;;;;;;;;;1.50;1.00;;;;;24.18;49.16;100853.63;4996566;28;46096;-44
2023/07/30 01:07:06;;;;;;;;;0.50;0.50;;;;;24.17;48.33;100849.28;4996636;28;45231;-45
2023/07/30 01:09:33;;;;;;;;;0.00;0.00;;;;;24.15;48.46;100854.66;4996806;28;45286;-45
2023/07/30 01:12:00;;;;;;;;;1.00;1.00;;;;;24.17;48.08;100859.88;4996918;28;45502;-46
2023/07/30 01:14:26;;;;;;;;;0.25;0.25;;;;;24.15;48.31;100859.13;4996698;28;45419;-51
2023/07/30 01:16:52;;;;;;;;;1.00;0.50;;;;;24.14;48.28;100854.78;4996494;28;45603;-49
2023/07/30 01:19:17;;;;;;;;;0.75;0.75;;;;;24.14;48.12;100868.00;4996409;28;45318;-50
2023/07/30 01:21:43;;;;;;;;;1.00;1.00;;;;;24.15;48.57;100869.72;4996762;28;45465;-49
2023/07/30 01:24:08;;;;;;;;;1.00;1.00;;;;;24.14;48.42;100868.00;4996408;28;46012;-45
2023/07/30 01:26:39;;;;;;;;;1.00;1.00;;;;;24.13;47.89;100879.56;4997095;28;45314;-50
2023/07/30 01:29:13;;;;;;;;;0.00;0.00;;;;;24.13;48.03;100877.78;5000154;28;45419;-45
2023/07/30 01:31:41;;;;;;;;;0.75;0.00;;;;;24.14;47.85;100883.91;5000313;28;45392;-45
2023/07/30 01:34:09;;;;;;;;;1.50;1.00;;;;;24.13;48.36;100882.19;4998558;28;46188;-45
2023/07/30 01:36:35;;;;;;;;;0.50;0.50;;;;;24.12;48.00;100891.09;4999813;28;45536;-51
2023/07/30 01:39:01;;;;;;;;;1.50;0.50;;;;;24.12;47.70;100897.25;4999829;28;45251;-47
2023/07/30 01:41:26;;;;;;;;;1.00;1.00;;;;;24.11;47.43;100908.81;5000323;28;45232;-49
2023/07/30 01:43:52;;;;;;;;;1.50;0.50;;;;;24.10;47.81;100907.09;4999594;28;45994;-50
2023/07/30 01:46:17;;;;;;;;;1.25;1.00;;;;;24.11;47.80;100915.88;4999533;28;45326;-47
2023/07/30 01:48:43;;;;;;;;;1.75;1.00;;;;;24.11;47.82;100913.22;4999306;28;51977;-47
2023/07/30 01:51:08;;;;;;;;;2.00;1.00;;;;;24.09;47.61;100918.66;4999816;28;45709;-45
2023/07/30 01:53:33;;;;;;;;;1.00;1.00;;;;;24.08;47.23;100916.94;4998503;28;69027;-45
2023/07/30 01:55:58;;;;;;;;;0.50;0.50;;;;;24.07;47.26;100921.41;4999116;28;60297;-45
2023/07/30 01:58:24;;;;;;;;;1.00;1.00;;;;;24.07;47.69;100920.56;4999576;28;45286;-45
2023/07/30 02:00:49;;;;;;;;;0.00;0.00;;;;;24.07;47.69;100921.41;4999712;28;45267;-46
2023/07/30 02:03:14;;;;;;;;;2.00;0.00;;;;;24.07;47.60;100925.84;4999284;28;47216;-44
2023/07/30 02:05:40;;;;;;;;;1.00;1.00;;;;;24.06;47.36;100918.84;4999301;28;45829;-49
2023/07/30 02:08:05;;;;;;;;;2.00;2.00;;;;;24.04;47.58;100904.88;4999029;28;55181;-49
2023/07/30 02:10:30;;;;;;;;;2.25;1.00;;;;;24.05;47.19;100919.81;4981864;28;46012;-44
2023/07/30 02:12:56;;;;;;;;;2.50;1.00;;;;;24.04;47.62;100932.22;4999242;28;45898;-51
2023/07/30 02:15:21;;;;;;;;;1.75;1.00;;;;;24.04;47.25;100926.91;4999137;28;45504;-45
2023/07/30 02:17:46;;;;;;;;;0.00;0.00;;;;;24.03;47.14;100932.31;4999252;28;45488;-47
2023/07/30 02:20:12;;;;;;;;;0.00;0.00;;;;;24.02;47.06;100939.41;4999461;28;45357;-47
2023/07/30 02:22:37;;;;;;;;;1.00;1.00;;;;;24.02;47.63;100934.09;4999192;28;45445;-47
2023/07/30 02:25:02;;;;;;;;;1.75;0.00;;;;;24.00;47.08;100930.72;4998990;28;45367;-42
2023/07/30 02:27:28;;;;;;;;;2.00;0.00;;;;;24.02;47.35;100938.56;4981798;28;45522;-42
2023/07/30 02:29:53;;;;;;;;;1.00;1.00;;;;;24.00;46.90;100936.00;4999278;28;45617;-46
2023/07/30 02:32:18;;;;;;;;;1.00;0.00;;;;;24.00;47.17;100936.00;4998695;28;50719;-41
2023/07/30 02:34:44;;;;;;;;;0.75;0.75;;;;;24.00;47.43;100941.31;4998764;28;45433;-47
2023/07/30 02:37:09;;;;;;;;;1.50;0.75;;;;;24.00;47.28;100935.19;4980798;28;56244;-48
2023/07/30 02:39:34;;;;;;;;;1.75;0.25;;;;;23.99;47.66;100944.06;4980092;28;45355;-49
2023/07/30 02:41:59;;;;;;;;;1.00;1.00;;;;;23.99;46.95;100947.53;4998270;28;64013;-50
2023/07/30 02:44:25;;;;;;;;;0.00;0.00;;;;;23.99;47.07;100952.00;4998103;28;64612;-50
2023/07/30 02:46:50;;;;;;;;;2.75;1.75;;;;;23.98;47.17;100952.97;4998868;28;45243;-45
2023/07/30 02:49:15;;;;;;;;;2.50;1.00;;;;;23.97;47.56;100946.84;4998979;28;45377;-49
2023/07/30 02:51:43;;;;;;;;;1.00;1.00;;;;;23.98;47.13;100948.50;4998165;28;54764;-48
2023/07/30 02:54:09;;;;;;;;;1.25;1.25;;;;;23.97;47.23;100940.66;4998522;28;45811;-48
2023/07/30 02:56:34;;;;;;;;;1.00;1.00;;;;;23.95;47.38;100938.13;4998580;28;45402;-52
2023/07/30 02:59:01;;;;;;;;;1.00;1.00;;;;;23.95;47.09;100940.78;4999068;28;45610;-51
2023/07/30 03:01:26;;;;;;;;;1.75;1.25;;;;;23.92;46.87;100936.50;4998396;28;46235;-47
2023/07/30 03:03:52;;;;;;;;;1.00;1.00;;;;;23.95;47.32;100951.38;4998284;28;45475;-45
2023/07/30 03:06:17;;;;;;;;;2.00;0.00;;;;;23.96;46.89;100944.25;4998591;28;45275;-50
2023/07/30 03:08:43;;;;;;;;;3.00;1.50;;;;;23.92;47.44;100933.00;4998714;28;45239;-46
2023/07/30 03:11:08;;;;;;;;;0.00;0.00;;;;;23.94;46.97;100949.66;4998211;28;46322;-48
2023/07/30 03:13:34;;;;;;;;;0.50;0.50;;;;;23.94;47.18;100947.84;4998406;28;45715;-43
2023/07/30 03:15:59;;;;;;;;;1.00;1.00;;;;;23.94;47.31;100947.00;4998539;28;45245;-49
2023/07/30 03:18:24;;;;;;;;;2.75;1.50;;;;;23.92;47.37;100943.59;4976672;28;59361;-43
2023/07/30 03:20:50;;;;;;;;;1.00;1.00;;;;;23.93;47.51;100946.13;4978396;28;46833;-46
2023/07/30 03:23:15;;;;;;;;;1.75;1.00;;;;;23.93;47.13;100955.88;4978545;28;45388;-45
2023/07/30 03:25:40;;;;;;;;;2.50;1.00;;;;;23.92;47.40;100955.03;4977354;28;45333;-47
2023/07/30 03:28:06;;;;;;;;;1.25;1.00;;;;;23.90;47.20;100946.38;4978735;28;45577;-44
2023/07/30 03:30:31;;;;;;;;;1.00;0.75;;;;;23.91;47.44;100952.50;4978650;28;45281;-49
2023/07/30 03:32:56;;;;;;;;;0.75;0.75;;;;;23.89;46.82;100952.59;4978205;28;47250;-47
2023/07/30 03:35:21;;;;;;;;;2.00;0.50;;;;;23.92;46.83;100959.47;4977856;28;55482;-48
2023/07/30 03:37:47;;;;;;;;;1.00;1.00;;;;;23.90;47.27;100959.59;4978666;28;45297;-42
2023/07/30 03:40:12;;;;;;;;;2.00;1.00;;;;;23.90;47.35;100969.31;4977510;28;65360;-48
2023/07/30 03:42:37;;;;;;;;;1.00;1.00;;;;;23.90;47.25;100969.31;4978173;28;45403;-46
2023/07/30 03:45:03;;;;;;;;;2.25;1.00;;;;;23.89;47.32;100975.56;4978572;28;45375;-44
2023/07/30 03:47:29;;;;;;;;;1.00;1.00;;;;;23.88;46.71;100969.44;4977177;28;45570;-47
2023/07/30 03:49:54;;;;;;;;;1.50;1.00;;;;;23.88;47.13;100964.16;4977496;28;50616;-47
2023/07/30 03:52:19;;;;;;;;;1.00;1.00;;;;;23.88;46.88;100974.72;4977679;28;55141;-47
2023/07/30 03:54:45;;;;;;;;;2.25;1.00;;;;;23.88;46.82;100973.88;4977861;28;45521;-45
2023/07/30 03:57:10;;;;;;;;;1.00;1.00;;;;;23.87;46.79;100982.75;4978252;28;45437;-41
2023/07/30 03:59:35;;;;;;;;;1.00;1.00;;;;;23.85;46.92;100982.03;4978158;28;45425;-49
2023/07/30 04:02:00;;;;;;;;;2.00;1.00;;;;;23.84;47.05;100981.16;4977082;28;65784;-46
2023/07/30 04:04:26;;;;;;;;;1.00;1.00;;;;;23.82;46.63;100987.53;4977840;28;45422;-46
2023/07/30 04:06:51;;;;;;;;;2.00;1.00;;;;;23.81;47.05;100981.41;4977675;28;50476;-54
2023/07/30 04:09:16;;;;;;;;;2.00;1.00;;;;;23.82;47.21;100985.72;4977286;28;61926;-46
2023/07/30 04:11:42;;;;;;;;;1.25;1.25;;;;;23.83;47.26;100981.28;4977835;28;45469;-43
2023/07/30 04:14:08;;;;;;;;;2.25;1.00;;;;;23.83;46.81;100989.22;4978144;28;45436;-46
2023/07/30 04:16:34;;;;;;;;;2.50;1.00;;;;;23.81;46.87;100986.69;4978339;28;45426;-46
2023/07/30 04:18:59;;;;;;;;;2.00;1.00;;;;;23.81;47.02;100985.84;4992544;28;46522;-50
2023/07/30 04:21:25;;;;;;;;;1.25;1.00;;;;;23.81;46.76;100978.75;4997122;28;47001;-50
2023/07/30 04:23:50;;;;;;;;;2.75;1.00;;;;;23.83;46.77;100997.16;4997331;28;45305;-45
2023/07/30 04:26:17;;;;;;;;;3.00;2.00;;;;;23.84;47.17;100989.13;4997425;28;45226;-47
2023/07/30 04:28:42;;;;;;;;;2.50;2.00;;;;;23.85;46.84;100996.09;4997086;28;46219;-48
2023/07/30 04:31:08;;;;;;;;;1.25;1.25;;;;;23.85;46.90;101005.84;4979645;28;51597;-55
2023/07/30 04:33:33;;;;;;;;;2.00;2.00;;;;;23.85;47.26;101003.22;4997236;28;45819;-50
2023/07/30 04:35:58;;;;;;;;;1.00;1.00;;;;;23.85;46.77;101006.69;4997515;28;45559;-53
2023/07/30 04:38:24;;;;;;;;;2.00;1.00;;;;;23.84;47.13;101006.81;4997025;28;45424;-54
2023/07/30 04:40:49;;;;;;;;;2.50;1.50;;;;;23.84;47.21;101005.00;4996816;28;45306;-46
2023/07/30 04:43:14;;;;;;;;;3.75;1.25;;;;;23.83;46.85;101007.75;4996688;28;49183;-48
2023/07/30 04:45:40;;;;;;;;;1.00;0.00;;;;;23.84;46.76;101012.94;4997132;28;45615;-45
2023/07/30 04:48:05;;;;;;;;;3.00;1.00;;;;;23.82;47.17;101014.81;4997094;28;45317;-44
2023/07/30 04:50:30;;;;;;;;;2.00;1.50;;;;;23.84;46.79;101020.88;4996694;28;48137;-46
2023/07/30 04:52:56;;;;;;;;;3.00;2.25;;;;;23.86;46.70;101032.22;4996914;28;45870;-42
2023/07/30 04:55:21;;;;;;;;;2.00;1.25;;;;;23.88;47.00;101032.09;4996552;28;47184;-52
2023/07/30 04:57:46;;;;;;;;;3.75;3.50;;;;;23.90;47.45;101027.56;4996642;28;46359;-54
2023/07/30 05:00:12;;;;;;;;;2.75;2.00;;;;;23.93;46.68;101033.50;4996495;28;48376;-40
2023/07/30 05:02:37;;;;;;;;;2.00;0.75;;;;;23.94;47.14;101031.72;4996320;28;45226;-46
2023/07/30 05:05:03;;;;;;;;;2.00;1.50;;;;;23.98;47.05;101035.03;4996875;28;45215;-42
2023/07/30 05:07:28;;;;;;;;;2.50;1.50;;;;;23.96;46.59;101035.13;4996461;28;45629;-44
2023/07/30 05:09:54;;;;;;;;;2.00;1.00;;;;;23.94;46.36;101045.78;4995936;28;59297;-44
2023/07/30 05:12:19;;;;;;;;;3.00;1.00;;;;;23.80;46.50;101043.22;4996697;28;45270;-44
2023/07/30 05:14:44;;;;;;;;;3.75;1.00;;;;;23.74;46.84;101047.13;4996747;28;45397;-44
2023/07/30 05:17:10;;;;;;;;;3.50;2.00;;;;;23.72;47.10;101046.38;4996143;28;56545;-45
2023/07/30 05:19:35;;;;;;;;;2.25;1.00;;;;;23.72;46.81;101049.00;4996390;28;45290;-49
2023/07/30 05:22:01;;;;;;;;;0.25;0.25;;;;;23.72;46.68;101056.94;4996212;28;50475;-44
2023/07/30 05:24:27;;;;;;;;;2.75;1.00;;;;;23.72;47.04;101059.59;4996489;28;45462;-42
2023/07/30 05:26:52;;;;;;;;;1.00;1.00;;;;;23.71;46.48;101060.53;4996284;28;45203;-47
2023/07/30 05:29:17;;;;;;;;;1.25;1.00;;;;;23.71;47.06;101060.53;4995433;28;67247;-43
2023/07/30 05:31:42;;;;;;;;;2.25;2.25;;;;;23.70;46.53;101064.13;4996264;28;45337;-44
2023/07/30 05:34:08;;;;;;;;;2.25;2.00;;;;;23.70;46.99;101061.50;4996725;28;45312;-47
2023/07/30 05:36:33;;;;;;;;;2.00;1.25;;;;;23.67;46.38;101061.69;4996200;28;45364;-46
2023/07/30 05:38:58;;;;;;;;;1.50;0.50;;;;;23.67;46.89;101064.31;4996033;28;45297;-45
2023/07/30 05:41:24;;;;;;;;;2.50;1.00;;;;;23.69;46.65;101069.53;4996307;28;45388;-42
2023/07/30 05:43:49;;;;;;;;;0.75;0.75;;;;;23.67;46.55;101066.97;4996572;28;45579;-42
2023/07/30 05:46:14;;;;;;;;;1.00;1.00;;;;;23.67;46.57;101071.44;4996060;28;46051;-42
2023/07/30 05:48:40;;;;;;;;;1.75;1.00;;;;;23.67;46.96;101061.69;4996387;28;45373;-42
2023/07/30 05:51:05;;;;;;;;;6.75;1.00;;;;;23.67;46.86;101060.84;4996188;28;45302;-43
2023/07/30 05:53:31;;;;;;;;;4.00;1.00;;;;;23.65;47.05;101063.56;4996019;28;45389;-45
2023/07/30 05:55:56;;;;;;;;;0.75;0.75;;;;;23.66;46.28;101067.91;4995837;28;45350;-42
2023/07/30 05:58:21;;;;;;;;;1.50;1.00;;;;;23.65;46.31;101055.63;4995918;28;45354;-45
2023/07/30 06:00:47;;;;;;;;;1.25;1.25;;;;;23.63;46.43;101063.69;4995875;28;45491;-44
2023/07/30 06:03:12;;;;;;;;;1.00;1.00;;;;;23.63;46.82;101070.78;4978877;28;45318;-45
2023/07/30 06:05:41;;;;;;;;;2.25;2.00;;;;;23.62;46.25;101069.09;4995654;28;46973;-45
2023/07/30 06:08:08;;;;;;;;;1.00;1.00;;;;;23.61;46.73;101059.44;4995762;28;45281;-42
2023/07/30 06:10:36;;;;;;;;;0.75;0.75;;;;;23.62;46.38;101077.88;4995961;28;45338;-50
2023/07/30 06:13:03;;;;;;;;;1.00;1.00;;;;;23.61;46.27;101077.97;4997193;28;45417;-46
2023/07/30 06:15:28;;;;;;;;;2.25;1.00;;;;;23.61;46.14;101075.31;4999223;28;45896;-46
2023/07/30 06:17:54;;;;;;;;;1.00;1.00;;;;;23.61;46.22;101077.97;4999176;28;45854;-45
2023/07/30 06:20:19;;;;;;;;;1.50;0.00;;;;;23.61;46.58;101085.91;4999030;28;47488;-46
2023/07/30 06:22:45;;;;;;;;;4.00;1.00;;;;;23.62;46.34;101090.25;4981681;28;45522;-45
2023/07/30 06:25:10;;;;;;;;;2.75;1.00;;;;;23.61;46.59;101089.38;4999130;28;45597;-45
2023/07/30 06:27:35;;;;;;;;;1.50;1.50;;;;;23.61;46.20;101083.25;4998902;28;45366;-46
2023/07/30 06:30:00;;;;;;;;;1.75;1.75;;;;;23.58;46.50;101089.59;4998881;28;45382;-44
2023/07/30 06:32:26;;;;;;;;;1.00;1.00;;;;;23.59;46.07;101083.34;4999129;28;45334;-48
2023/07/30 06:34:51;;;;;;;;;1.75;1.00;;;;;23.60;46.30;101097.44;4998704;28;45390;-46
2023/07/30 06:37:17;;;;;;;;;1.00;1.00;;;;;23.60;46.04;101105.38;4998174;28;62037;-47
2023/07/30 06:39:42;;;;;;;;;3.00;1.75;;;;;23.61;46.18;101099.13;4999156;28;45385;-49
2023/07/30 06:42:08;;;;;;;;;1.50;1.00;;;;;23.59;46.12;101106.31;4998641;28;48320;-46
2023/07/30 06:44:34;;;;;;;;;2.25;2.00;;;;;23.59;46.42;101117.75;4998480;28;47377;-44
2023/07/30 06:46:59;;;;;;;;;1.00;1.00;;;;;23.60;46.40;101113.31;4998643;28;45411;-46
2023/07/30 06:49:24;;;;;;;;;2.25;2.00;;;;;23.58;46.35;101113.44;4980978;28;45717;-44
2023/07/30 06:51:50;;;;;;;;;1.75;1.75;;;;;23.59;46.28;101127.50;4998860;28;45411;-42
2023/07/30 06:54:15;;;;;;;;;1.00;0.25;;;;;23.57;45.97;101124.94;4998706;28;45333;-42
2023/07/30 06:56:40;;;;;;;;;2.00;2.00;;;;;23.57;46.24;101132.03;4998470;28;45416;-46
2023/07/30 06:59:05;;;;;;;;;1.25;1.00;;;;;23.58;46.10;101128.44;4998596;28;45475;-41
2023/07/30 07:01:31;;;;;;;;;1.00;1.00;;;;;23.58;45.87;101123.13;4998570;28;45584;-42
2023/07/30 07:03:56;;;;;;;;;4.00;1.00;;;;;23.58;46.05;101125.78;4997543;28;45426;-43
2023/07/30 07:06:22;;;;;;;;;2.00;2.00;;;;;23.57;45.72;101126.72;4980853;28;45290;-48
2023/07/30 07:08:47;;;;;;;;;2.00;0.00;;;;;23.57;46.46;101130.25;4998449;28;45435;-42
2023/07/30 07:11:12;;;;;;;;;2.00;1.00;;;;;23.58;46.25;101125.78;4998503;28;49246;-45
2023/07/30 07:13:37;;;;;;;;;1.00;1.00;;;;;23.57;46.42;101126.72;4980529;28;47083;-44
2023/07/30 07:16:03;;;;;;;;;2.75;1.00;;;;;23.58;46.21;101125.78;4998136;28;45315;-43
2023/07/30 07:18:29;;;;;;;;;0.75;0.50;;;;;23.58;46.50;101125.78;4998168;28;45234;-45
2023/07/30 07:20:54;;;;;;;;;3.75;2.00;;;;;23.57;46.31;101132.88;4998374;28;45344;-43
2023/07/30 07:23:19;;;;;;;;;4.00;2.00;;;;;23.56;45.83;101122.38;4980223;28;45259;-41
2023/07/30 07:25:45;;;;;;;;;0.50;0.25;;;;;23.56;45.69;101127.69;4997782;28;45394;-40
2023/07/30 07:28:10;;;;;;;;;2.50;1.00;;;;;23.57;45.73;101135.53;4998152;28;45392;-44
2023/07/30 07:30:38;;;;;;;;;2.00;1.00;;;;;23.58;45.75;101125.78;4980672;28;45608;-43
2023/07/30 07:33:05;;;;;;;;;2.00;2.00;;;;;23.56;46.08;101127.69;4980045;28;47068;-45
2023/07/30 07:35:31;;;;;;;;;2.00;2.00;;;;;23.55;45.73;101126.84;4997824;28;45875;-47
2023/07/30 07:37:57;;;;;;;;;2.00;1.00;;;;;23.58;45.95;101133.72;4998008;28;45470;-48
2023/07/30 07:40:22;;;;;;;;;1.75;1.00;;;;;23.59;46.12;101138.06;4998186;28;45559;-43
2023/07/30 07:42:47;;;;;;;;;1.00;1.00;;;;;23.57;45.84;101140.81;4998243;28;45317;-46
2023/07/30 07:45:13;;;;;;;;;1.00;1.00;;;;;23.58;45.63;101142.53;4980426;28;45308;-45
2023/07/30 07:47:38;;;;;;;;;1.00;1.00;;;;;23.59;45.83;101138.06;4998115;28;45353;-45
2023/07/30 07:50:04;;;;;;;;;3.50;1.00;;;;;23.59;46.04;101132.78;4997709;28;46300;-44
2023/07/30 07:52:30;;;;;;;;;1.00;1.00;;;;;23.60;46.04;101142.41;4997426;28;46294;-46
2023/07/30 07:54:55;;;;;;;;;3.75;1.50;;;;;23.59;45.44;101144.19;4979762;28;45282;-46
2023/07/30 07:57:20;;;;;;;;;0.25;0.25;;;;;23.60;46.02;101140.59;4997895;28;45463;-43
2023/07/30 07:59:47;;;;;;;;;1.75;1.50;;;;;23.59;45.48;101143.38;4997776;28;45708;-40
2023/07/30 08:02:12;;;;;;;;;4.00;1.00;;;;;23.60;45.46;101160.94;4997487;28;46173;-42
2023/07/30 08:04:38;;;;;;;;;4.00;2.00;;;;;23.60;45.68;101159.13;4997506;28;45456;-43
2023/07/30 08:07:04;;;;;;;;;1.75;1.75;;;;;23.60;45.83;101156.47;4979932;28;45355;-43
2023/07/30 08:09:30;;;;;;;;;3.00;2.00;;;;;23.62;45.20;101174.94;4997666;28;45600;-44
2023/07/30 08:11:55;;;;;;;;;1.00;1.00;;;;;23.62;45.34;101169.63;4997370;28;46249;-42
2023/07/30 08:14:20;;;;;;;;;2.50;2.00;;;;;23.61;45.34;101175.88;4997316;28;45367;-43
2023/07/30 08:16:46;;;;;;;;;1.50;1.50;;;;;23.62;45.10;101174.94;4997880;28;45373;-45
2023/07/30 08:19:11;;;;;;;;;2.00;2.00;;;;;23.62;45.23;101180.22;4976502;28;45624;-47
2023/07/30 08:21:37;;;;;;;;;1.00;1.00;;;;;23.62;45.49;101165.19;4977150;28;56508;-46
2023/07/30 08:24:02;;;;;;;;;1.50;1.50;;;;;23.63;45.47;101171.34;4977522;28;45423;-47
2023/07/30 08:26:28;;;;;;;;;2.00;2.00;;;;;23.63;45.07;101163.41;4977712;28;45309;-47
2023/07/30 08:28:53;;;;;;;;;4.00;1.50;;;;;23.61;45.05;101173.22;4977671;28;45600;-45
2023/07/30 08:31:18;;;;;;;;;3.25;2.00;;;;;23.64;45.49;101178.34;4977384;28;55243;-42
2023/07/30 08:33:44;;;;;;;;;1.75;1.75;;;;;23.63;45.52;101172.16;4977239;28;46726;-43
2023/07/30 08:36:09;;;;;;;;;2.50;2.00;;;;;23.60;45.33;101171.53;4975740;28;56218;-43
2023/07/30 08:38:34;;;;;;;;;2.00;2.00;;;;;23.63;45.22;101181.91;4977602;28;45289;-44
2023/07/30 08:41:00;;;;;;;;;1.00;1.00;;;;;23.62;44.88;101180.22;4975877;28;47317;-47
2023/07/30 08:43:26;;;;;;;;;2.00;1.00;;;;;23.63;45.00;101181.91;4976702;28;59877;-44
2023/07/30 08:45:51;;;;;;;;;1.00;1.00;;;;;23.65;44.91;101179.16;4977588;28;45375;-45
2023/07/30 08:48:16;;;;;;;;;2.75;2.00;;;;;23.63;45.02;101180.09;4977462;28;45538;-47
2023/07/30 08:50:43;;;;;;;;;2.75;1.50;;;;;23.64;44.68;101183.63;4976956;28;46147;-42
2023/07/30 08:53:10;;;;;;;;;3.00;3.00;;;;;23.65;45.10;101179.16;4976987;28;45693;-45
2023/07/30 08:55:36;;;;;;;;;3.00;1.00;;;;;23.63;44.69;101184.56;4977167;28;45401;-48
2023/07/30 08:58:02;;;;;;;;;1.75;1.75;;;;;23.64;44.83;101188.91;4959954;28;45564;-43
2023/07/30 09:00:33;;;;;;;;;2.00;1.75;;;;;23.64;44.59;101188.91;4977002;28;45598;-43
2023/07/30 09:03:04;;;;;;;;;1.50;1.00;;;;;23.64;45.08;101178.34;4977172;28;45471;-50
2023/07/30 09:05:30;;;;;;;;;2.00;1.00;;;;;23.65;45.04;101182.66;4975328;28;45423;-46
2023/07/30 09:07:56;;;;;;;;;2.50;1.00;;;;;23.65;45.07;101180.00;4977193;28;45472;-42
2023/07/30 09:10:22;;;;;;;;;2.00;1.00;;;;;23.65;44.55;101172.06;4977074;28;46182;-45
2023/07/30 09:12:55;;;;;;;;;2.00;2.00;;;;;23.66;44.35;101176.41;4975668;28;45757;-45
2023/07/30 09:15:33;;;;;;;;;3.00;3.00;;;;;23.66;44.51;101176.41;4977092;28;45221;-43
2023/07/30 09:18:02;;;;;;;;;1.00;1.00;;;;;23.66;45.00;101179.06;4983734;28;45562;-43
2023/07/30 09:20:27;;;;;;;;;1.00;1.00;;;;;23.66;45.00;101176.41;4996256;28;46552;-44
2023/07/30 09:22:56;;;;;;;;;2.00;2.00;;;;;23.66;44.93;101179.06;4996625;28;45333;-47
2023/07/30 09:25:22;;;;;;;;;1.25;1.25;;;;;23.66;44.60;101171.13;4996778;28;45380;-45
2023/07/30 09:27:49;;;;;;;;;2.25;1.00;;;;;23.65;44.77;101172.06;4996577;28;45211;-43
2023/07/30 09:30:21;;;;;;;;;2.00;2.00;;;;;23.63;44.41;101164.22;4996257;28;45446;-41
2023/07/30 09:32:51;;;;;;;;;2.00;0.75;;;;;23.64;44.25;101165.09;4996138;28;45713;-42
2023/07/30 09:35:17;;;;;;;;;1.00;1.00;;;;;23.68;44.57;101171.03;4978565;28;45441;-45
2023/07/30 09:37:43;;;;;;;;;1.00;1.00;;;;;23.67;44.35;101170.19;4996653;28;45501;-45
2023/07/30 09:40:12;;;;;;;;;1.50;1.00;;;;;23.66;44.76;101159.69;4996079;28;45876;-44
2023/07/30 09:42:40;;;;;;;;;6.25;3.00;;;;;23.69;44.76;101162.16;4996062;28;45345;-44
2023/07/30 09:45:09;;;;;;;;;3.50;2.25;;;;;23.69;44.36;101155.06;4996210;28;45451;-42
2023/07/30 09:47:37;;;;;;;;;3.50;1.25;;;;;23.70;44.29;101164.69;4997051;28;45592;-42
2023/07/30 09:50:02;;;;;;;;;2.50;2.50;;;;;23.68;44.69;101177.16;4981848;28;46140;-41
2023/07/30 09:52:29;;;;;;;;;3.25;2.00;;;;;23.71;44.58;101182.28;4999547;28;45243;-43
2023/07/30 09:54:57;;;;;;;;;1.50;1.50;;;;;23.70;44.52;101169.16;4999914;28;45278;-45
2023/07/30 09:57:23;;;;;;;;;2.00;2.00;;;;;23.70;43.91;101170.00;4999978;28;46073;-41
2023/07/30 09:59:49;;;;;;;;;2.75;2.25;;;;;23.72;43.89;101173.41;4999271;28;49771;-45
2023/07/30 10:02:15;;;;;;;;;2.00;2.00;;;;;23.72;44.21;101170.75;4999315;28;45215;-42
2023/07/30 10:04:48;;;;;;;;;2.00;2.00;;;;;23.72;43.73;101169.88;4999469;28;45244;-46
2023/07/30 10:07:22;;;;;;;;;2.00;2.00;;;;;23.73;43.83;101179.53;4981736;28;45229;-40
2023/07/30 10:09:53;;;;;;;;;2.00;2.00;;;;;23.72;43.82;101185.75;4999182;28;45501;-42
2023/07/30 10:12:24;;;;;;;;;3.50;1.75;;;;;23.72;43.74;101186.63;4999225;28;45792;-46
2023/07/30 10:14:50;;;;;;;;;4.25;3.00;;;;;23.73;43.61;101190.97;4999325;28;45226;-44
2023/07/30 10:17:17;;;;;;;;;1.75;1.50;;;;;23.72;44.25;101199.84;4981601;28;45653;-45
2023/07/30 10:19:47;;;;;;;;;1.50;1.00;;;;;23.74;43.81;101197.97;4999107;28;46019;-48
2023/07/30 10:22:12;;;;;;;;;1.00;1.00;;;;;23.73;43.79;101193.63;4998895;28;45322;-42
2023/07/30 10:24:38;;;;;;;;;2.33;2.00;;;;;23.74;44.25;101192.69;4999076;28;45575;-46
2023/07/30 10:27:09;;;;;;;;;1.50;1.50;;;;;23.74;43.89;101203.25;4999230;28;45567;-42
2023/07/30 10:29:35;;;;;;;;;2.50;2.00;;;;;23.74;44.21;101203.25;4998854;28;45475;-43
2023/07/30 10:32:02;;;;;;;;;4.25;2.00;;;;;23.75;43.58;101215.56;4998950;28;45459;-44
2023/07/30 10:34:44;;;;;;;;;1.50;1.50;;;;;23.75;43.67;101206.75;4999320;28;45476;-49
2023/07/30 10:37:09;;;;;;;;;2.25;2.00;;;;;23.77;43.55;101213.63;4999046;28;45398;-43
2023/07/30 10:39:35;;;;;;;;;2.00;2.00;;;;;23.76;43.88;101209.28;4998731;28;45425;-46
2023/07/30 10:42:01;;;;;;;;;2.50;1.75;;;;;23.76;43.51;101198.69;4998850;28;45360;-45
2023/07/30 10:44:33;;;;;;;;;4.00;2.00;;;;;23.76;43.34;101209.28;4999133;28;45326;-45
2023/07/30 10:47:01;;;;;;;;;1.25;1.25;;;;;23.76;43.70;101198.69;4999153;28;45511;-42
2023/07/30 10:49:26;;;;;;;;;2.00;2.00;;;;;23.78;43.78;101212.69;4981048;28;47366;-47
2023/07/30 10:51:53;;;;;;;;;3.00;1.75;;;;;23.78;43.12;101199.44;4998638;28;45382;-46
2023/07/30 10:54:19;;;;;;;;;2.50;1.75;;;;;23.80;43.25;101206.44;4998642;28;45257;-44
2023/07/30 10:56:45;;;;;;;;;2.00;2.00;;;;;23.80;43.62;101190.56;4998871;28;45545;-45
2023/07/30 10:59:11;;;;;;;;;2.50;2.50;;;;;23.79;43.67;101202.97;4997448;28;46264;-44
2023/07/30 11:01:42;;;;;;;;;1.00;1.00;;;;;23.80;42.99;101198.50;4980712;28;45224;-48
2023/07/30 11:04:18;;;;;;;;;2.75;1.75;;;;;23.80;43.46;101195.88;4980878;28;45380;-41
2023/07/30 11:06:49;;;;;;;;;1.00;1.00;;;;;23.82;43.14;101201.91;4998686;28;45534;-44
2023/07/30 11:09:26;;;;;;;;;1.00;1.00;;;;;23.82;43.46;101199.28;4998294;28;46466;-44
2023/07/30 11:11:53;;;;;;;;;1.50;1.50;;;;;23.81;42.94;101202.84;4998180;28;45317;-44
2023/07/30 11:14:27;;;;;;;;;2.00;2.00;;;;;23.80;43.37;101207.31;4998339;28;45306;-46
2023/07/30 11:16:55;;;;;;;;;2.25;2.00;;;;;23.82;43.07;101209.84;4998306;28;45505;-42
2023/07/30 11:19:20;;;;;;;;;2.25;2.00;;;;;23.83;43.00;101208.91;4997773;28;47496;-46